Time,TemperatureF,DewpointF,PressureIn,WindDirection,WindDirectionDegrees,WindSpeedMPH,WindSpeedGustMPH,Humidity,HourlyPrecipIn,Conditions,Clouds,dailyrainin,SoftwareType,DateUTC
2013-02-01 00:02:00,0.3,-10.6,29.26,WSW,244,4.9,5.8,59,0.00,,CLR,0.00,VWS V14.01,2013-02-01 06:02:00,
2013-02-01 00:07:00,0.1,-10.8,29.26,WSW,253,6.3,8.3,59,0.00,,CLR,0.00,VWS V14.01,2013-02-01 06:07:00,
2013-02-01 00:12:00,0.3,-10.6,29.26,West,262,2.7,2.7,59,0.00,,CLR,0.00,VWS V14.01,2013-02-01 06:12:00,
2013-02-01 00:17:00,0.0,-10.9,29.26,WSW,256,0.0,2.7,59,0.00,,CLR,0.00,VWS V14.01,2013-02-01 06:17:00,
2013-02-01 00:22:00,0.0,-10.9,29.26,West,260,6.3,6.3,59,0.00,,CLR,0.00,VWS V14.01,2013-02-01 06:22:00,
2013-02-01 00:27:00,0.0,-10.9,29.26,West,274,3.1,3.1,59,0.00,,CLR,0.00,VWS V14.01,2013-02-01 06:27:00,
2013-02-01 00:33:00,-0.2,-11.1,29.29,West,262,0.0,0.0,59,0.00,,CLR,0.00,VWS V14.01,2013-02-01 06:33:00,
2013-02-01 00:38:00,-0.2,-11.1,29.29,WSW,249,0.0,0.0,59,0.00,,CLR,0.00,VWS V14.01,2013-02-01 06:38:00,
2013-02-01 00:43:00,-0.4,-11.3,29.29,West,266,0.0,0.0,59,0.00,,CLR,0.00,VWS V14.01,2013-02-01 06:43:00,
2013-02-01 00:48:00,-0.4,-11.3,29.26,West,259,0.0,0.0,59,0.00,,CLR,0.00,VWS V14.01,2013-02-01 06:48:00,
2013-02-01 00:53:00,-0.4,-11.3,29.26,West,268,0.0,3.6,59,0.00,,CLR,0.00,VWS V14.01,2013-02-01 06:53:00,
2013-02-01 00:58:00,-0.6,-11.5,29.26,WSW,254,0.0,0.0,59,0.00,,CLR,0.00,VWS V14.01,2013-02-01 06:58:00,
2013-02-01 01:03:00,-0.6,-11.5,29.26,WSW,240,4.5,4.5,59,0.00,,CLR,0.00,VWS V14.01,2013-02-01 07:03:00,
2013-02-01 01:08:00,-0.6,-11.5,29.26,WSW,250,0.0,6.3,59,0.00,,CLR,0.00,VWS V14.01,2013-02-01 07:08:00,
2013-02-01 01:13:00,-0.6,-11.5,29.26,WSW,254,0.0,0.0,59,0.00,,CLR,0.00,VWS V14.01,2013-02-01 07:13:00,
2013-02-01 01:18:00,-0.6,-11.5,29.26,WSW,256,0.0,2.7,59,0.00,,CLR,0.00,VWS V14.01,2013-02-01 07:18:00,
2013-02-01 01:23:00,-0.6,-11.5,29.26,West,276,0.0,0.0,59,0.00,,CLR,0.00,VWS V14.01,2013-02-01 07:23:00,
2013-02-01 01:28:00,-0.6,-11.5,29.26,WSW,249,4.0,6.3,59,0.00,,CLR,0.00,VWS V14.01,2013-02-01 07:28:00,
2013-02-01 01:33:00,-0.6,-11.5,29.26,WSW,246,0.0,2.7,59,0.00,,CLR,0.00,VWS V14.01,2013-02-01 07:33:00,
2013-02-01 01:38:00,-0.6,-11.5,29.26,WSW,244,0.0,5.8,59,0.00,,CLR,0.00,VWS V14.01,2013-02-01 07:38:00,
2013-02-01 01:43:00,-0.6,-11.5,29.29,SW,234,0.0,0.0,59,0.00,,CLR,0.00,VWS V14.01,2013-02-01 07:43:00,
2013-02-01 01:48:00,-0.9,-11.8,29.29,SW,231,0.0,6.3,59,0.00,,CLR,0.00,VWS V14.01,2013-02-01 07:48:00,
2013-02-01 01:53:00,-0.9,-11.8,29.29,WSW,242,0.0,0.0,59,0.00,,CLR,0.00,VWS V14.01,2013-02-01 07:53:00,
2013-02-01 01:58:00,-0.9,-11.8,29.26,WSW,244,0.0,0.0,59,0.00,,CLR,0.00,VWS V14.01,2013-02-01 07:58:00,
2013-02-01 02:04:00,-0.9,-11.8,29.26,SW,227,0.0,0.0,59,0.00,,CLR,0.00,VWS V14.01,2013-02-01 08:04:00,
2013-02-01 02:09:00,-0.9,-11.8,29.26,WSW,244,0.0,0.0,59,0.00,,CLR,0.00,VWS V14.01,2013-02-01 08:09:00,
2013-02-01 02:14:00,-0.9,-11.8,29.29,WSW,257,0.0,0.0,59,0.00,,CLR,0.00,VWS V14.01,2013-02-01 08:14:00,
2013-02-01 02:19:00,-0.9,-11.8,29.29,WSW,241,2.2,2.2,59,0.00,,CLR,0.00,VWS V14.01,2013-02-01 08:19:00,
2013-02-01 02:24:00,-0.9,-11.8,29.29,WSW,240,3.1,3.1,59,0.00,,CLR,0.00,VWS V14.01,2013-02-01 08:24:00,
2013-02-01 02:29:00,-0.9,-11.8,29.29,SW,233,0.0,0.0,59,0.00,,CLR,0.00,VWS V14.01,2013-02-01 08:29:00,
2013-02-01 02:34:00,-0.9,-11.8,29.29,SW,226,0.0,0.0,59,0.00,,CLR,0.00,VWS V14.01,2013-02-01 08:34:00,
2013-02-01 02:39:00,-1.1,-12.0,29.29,SW,226,0.0,0.0,59,0.00,,CLR,0.00,VWS V14.01,2013-02-01 08:39:00,
2013-02-01 02:44:00,-1.3,-12.1,29.29,SW,223,0.0,0.0,59,0.00,,CLR,0.00,VWS V14.01,2013-02-01 08:44:00,
2013-02-01 02:49:00,-1.3,-12.1,29.29,SW,222,0.0,0.0,59,0.00,,CLR,0.00,VWS V14.01,2013-02-01 08:49:00,
2013-02-01 02:54:00,-1.3,-12.1,29.29,SW,221,0.0,0.0,59,0.00,,CLR,0.00,VWS V14.01,2013-02-01 08:54:00,
2013-02-01 02:59:00,-1.5,-12.3,29.29,SW,220,0.0,0.0,59,0.00,,CLR,0.00,VWS V14.01,2013-02-01 08:59:00,
2013-02-01 03:04:00,-1.5,-12.3,29.29,SW,220,0.0,0.0,59,0.00,,CLR,0.00,VWS V14.01,2013-02-01 09:04:00,
2013-02-01 03:09:00,-1.7,-12.5,29.29,SW,223,0.0,0.0,59,0.00,,CLR,0.00,VWS V14.01,2013-02-01 09:09:00,
2013-02-01 03:14:00,-1.8,-12.7,29.29,SW,229,0.0,0.0,59,0.00,,CLR,0.00,VWS V14.01,2013-02-01 09:14:00,
2013-02-01 03:19:00,-1.8,-12.7,29.29,SW,235,0.0,0.0,59,0.00,,CLR,0.00,VWS V14.01,2013-02-01 09:19:00,
2013-02-01 03:24:00,-1.8,-12.7,29.29,SW,224,0.0,0.0,59,0.00,,CLR,0.00,VWS V14.01,2013-02-01 09:24:00,
2013-02-01 03:29:00,-1.8,-12.7,29.29,SW,225,0.0,0.0,59,0.00,,CLR,0.00,VWS V14.01,2013-02-01 09:29:00,
2013-02-01 03:34:00,-2.0,-12.8,29.29,SW,223,0.0,0.0,59,0.00,,CLR,0.00,VWS V14.01,2013-02-01 09:34:00,
2013-02-01 03:39:00,-2.0,-12.8,29.29,SW,222,0.0,0.0,59,0.00,,CLR,0.00,VWS V14.01,2013-02-01 09:39:00,
2013-02-01 03:44:00,-2.0,-12.8,29.29,SW,218,0.0,0.0,59,0.00,,CLR,0.00,VWS V14.01,2013-02-01 09:44:00,
2013-02-01 03:49:00,-2.0,-12.8,29.29,SW,226,0.0,0.0,59,0.00,,CLR,0.00,VWS V14.01,2013-02-01 09:49:00,
2013-02-01 03:55:00,-2.0,-12.8,29.29,SW,233,0.0,0.0,59,0.00,,CLR,0.00,VWS V14.01,2013-02-01 09:55:00,
2013-02-01 04:00:00,-2.2,-13.0,29.29,SW,224,0.0,0.0,59,0.00,,CLR,0.00,VWS V14.01,2013-02-01 10:00:00,
2013-02-01 04:05:00,-2.2,-13.0,29.29,SW,215,0.0,0.0,59,0.00,,CLR,0.00,VWS V14.01,2013-02-01 10:05:00,
2013-02-01 04:10:00,-2.2,-13.0,29.29,SW,217,0.0,0.0,59,0.00,,CLR,0.00,VWS V14.01,2013-02-01 10:10:00,
2013-02-01 04:15:00,-2.2,-13.0,29.29,SW,218,0.0,0.0,59,0.00,,CLR,0.00,VWS V14.01,2013-02-01 10:15:00,
2013-02-01 04:20:00,-2.2,-13.0,29.29,SW,221,0.0,0.0,59,0.00,,CLR,0.00,VWS V14.01,2013-02-01 10:20:00,
2013-02-01 04:25:00,-2.2,-13.0,29.29,SW,220,0.0,0.0,59,0.00,,CLR,0.00,VWS V14.01,2013-02-01 10:25:00,
2013-02-01 04:30:00,-2.4,-13.2,29.29,SW,228,0.0,0.0,59,0.00,,CLR,0.00,VWS V14.01,2013-02-01 10:30:00,
2013-02-01 04:35:00,-2.6,-13.3,29.29,SW,223,0.0,0.0,59,0.00,,CLR,0.00,VWS V14.01,2013-02-01 10:35:00,
2013-02-01 04:40:00,-2.6,-13.3,29.29,SW,223,0.0,0.0,59,0.00,,CLR,0.00,VWS V14.01,2013-02-01 10:40:00,
2013-02-01 04:45:00,-2.6,-13.3,29.29,SW,223,0.0,0.0,59,0.00,,CLR,0.00,VWS V14.01,2013-02-01 10:45:00,
2013-02-01 04:50:00,-2.6,-13.3,29.29,SW,223,0.0,0.0,59,0.00,,CLR,0.00,VWS V14.01,2013-02-01 10:50:00,
2013-02-01 04:55:00,-2.6,-13.3,29.29,SW,222,0.0,0.0,59,0.00,,CLR,0.00,VWS V14.01,2013-02-01 10:55:00,
2013-02-01 05:00:00,-2.6,-13.3,29.26,SW,233,0.0,0.0,59,0.00,,CLR,0.00,VWS V14.01,2013-02-01 11:00:00,
2013-02-01 05:05:00,-2.6,-13.3,29.26,WSW,240,0.0,0.0,59,0.00,,CLR,0.00,VWS V14.01,2013-02-01 11:05:00,
2013-02-01 05:10:00,-2.4,-13.2,29.26,WSW,240,0.0,0.0,59,0.00,,CLR,0.00,VWS V14.01,2013-02-01 11:10:00,
2013-02-01 05:15:00,-2.4,-13.2,29.26,WSW,240,0.0,0.0,59,0.00,,CLR,0.00,VWS V14.01,2013-02-01 11:15:00,
2013-02-01 05:20:00,-2.4,-13.2,29.26,WSW,240,0.0,0.0,59,0.00,,CLR,0.00,VWS V14.01,2013-02-01 11:20:00,
2013-02-01 05:25:00,-2.7,-13.5,29.26,WSW,240,0.0,0.0,59,0.00,,CLR,0.00,VWS V14.01,2013-02-01 11:25:00,
2013-02-01 05:30:00,-2.6,-13.3,29.26,WSW,240,0.0,0.0,59,0.00,,CLR,0.00,VWS V14.01,2013-02-01 11:30:00,
2013-02-01 05:35:00,-2.6,-13.3,29.26,WSW,240,0.0,0.0,59,0.00,,CLR,0.00,VWS V14.01,2013-02-01 11:35:00,
2013-02-01 05:40:00,-2.7,-13.5,29.26,WSW,240,0.0,0.0,59,0.00,,CLR,0.00,VWS V14.01,2013-02-01 11:40:00,
2013-02-01 05:45:00,-2.7,-13.5,29.26,WSW,240,0.0,0.0,59,0.00,,CLR,0.00,VWS V14.01,2013-02-01 11:45:00,
2013-02-01 05:50:00,-2.7,-13.5,29.26,WSW,240,0.0,0.0,59,0.00,,CLR,0.00,VWS V14.01,2013-02-01 11:50:00,
2013-02-01 05:55:00,-3.1,-13.9,29.26,WNW,290,0.0,0.0,59,0.00,,CLR,0.00,VWS V14.01,2013-02-01 11:55:00,
2013-02-01 06:00:00,-3.3,-14.0,29.26,WNW,292,0.0,0.0,59,0.00,,CLR,0.00,VWS V14.01,2013-02-01 12:00:00,
2013-02-01 06:05:00,-3.1,-13.9,29.26,WNW,291,0.0,0.0,59,0.00,,CLR,0.00,VWS V14.01,2013-02-01 12:05:00,
2013-02-01 06:10:00,-3.3,-14.0,29.26,NW,323,0.0,0.0,59,0.00,,CLR,0.00,VWS V14.01,2013-02-01 12:10:00,
2013-02-01 06:15:00,-3.5,-14.2,29.23,NNW,331,0.0,0.0,59,0.00,,CLR,0.00,VWS V14.01,2013-02-01 12:15:00,
2013-02-01 06:20:00,-3.5,-14.2,29.23,NW,324,0.0,0.0,59,0.00,,CLR,0.00,VWS V14.01,2013-02-01 12:20:00,
2013-02-01 06:25:00,-3.1,-13.9,29.23,NW,321,0.0,0.0,59,0.00,,CLR,0.00,VWS V14.01,2013-02-01 12:25:00,
2013-02-01 06:30:00,-3.1,-13.9,29.26,NW,321,0.0,0.0,59,0.00,,CLR,0.00,VWS V14.01,2013-02-01 12:30:00,
2013-02-01 06:35:00,-3.3,-14.0,29.26,NW,319,0.0,0.0,59,0.00,,CLR,0.00,VWS V14.01,2013-02-01 12:35:00,
2013-02-01 06:40:00,-3.5,-14.2,29.26,NW,314,0.0,0.0,59,0.00,,CLR,0.00,VWS V14.01,2013-02-01 12:40:00,
2013-02-01 06:46:00,-3.6,-14.4,29.26,NW,314,0.0,0.0,59,0.00,,CLR,0.00,VWS V14.01,2013-02-01 12:46:00,
2013-02-01 06:51:00,-3.6,-14.4,29.26,South,177,0.0,0.0,59,0.00,,CLR,0.00,VWS V14.01,2013-02-01 12:51:00,
2013-02-01 06:56:00,-3.6,-14.4,29.26,South,178,0.0,0.0,59,0.00,,CLR,0.00,VWS V14.01,2013-02-01 12:56:00,
2013-02-01 07:01:00,-4.2,-14.9,29.26,South,178,0.0,0.0,59,0.00,,CLR,0.00,VWS V14.01,2013-02-01 13:01:00,
2013-02-01 07:06:00,-4.2,-14.9,29.26,South,178,0.0,0.0,59,0.00,,CLR,0.00,VWS V14.01,2013-02-01 13:06:00,
2013-02-01 07:11:00,-4.2,-14.9,29.26,South,178,0.0,0.0,59,0.00,,CLR,0.00,VWS V14.01,2013-02-01 13:11:00,
2013-02-01 07:16:00,-4.2,-14.9,29.26,South,178,0.0,0.0,59,0.00,,CLR,0.00,VWS V14.01,2013-02-01 13:16:00,
2013-02-01 07:21:00,-4.0,-14.7,29.26,South,178,0.0,0.0,59,0.00,,CLR,0.00,VWS V14.01,2013-02-01 13:21:00,
2013-02-01 07:26:00,-4.0,-14.7,29.26,South,178,0.0,0.0,59,0.00,,CLR,0.00,VWS V14.01,2013-02-01 13:26:00,
2013-02-01 07:31:00,-4.2,-14.9,29.26,South,178,0.0,0.0,59,0.00,,CLR,0.00,VWS V14.01,2013-02-01 13:31:00,
2013-02-01 07:36:00,-4.4,-15.0,29.26,South,178,0.0,0.0,59,0.00,,CLR,0.00,VWS V14.01,2013-02-01 13:36:00,
2013-02-01 07:41:00,-4.4,-15.0,29.26,South,178,0.0,0.0,59,0.00,,CLR,0.00,VWS V14.01,2013-02-01 13:41:00,
2013-02-01 07:46:00,-4.2,-14.9,29.26,South,179,0.0,0.0,59,0.00,,CLR,0.00,VWS V14.01,2013-02-01 13:46:00,
2013-02-01 07:51:00,-3.8,-14.5,29.26,South,179,0.0,0.0,59,0.00,,CLR,0.00,VWS V14.01,2013-02-01 13:51:00,
2013-02-01 07:56:00,-3.6,-14.4,29.26,South,179,0.0,0.0,59,0.00,,CLR,0.00,VWS V14.01,2013-02-01 13:56:00,
2013-02-01 08:01:00,-3.5,-14.2,29.26,South,189,0.0,0.0,59,0.00,,FEW220,0.00,VWS V14.01,2013-02-01 14:01:00,
2013-02-01 08:06:00,-3.1,-13.9,29.26,South,190,0.0,0.0,59,0.00,,FEW220,0.00,VWS V14.01,2013-02-01 14:06:00,
2013-02-01 08:11:00,-3.1,-13.9,29.26,South,190,0.0,0.0,59,0.00,,FEW220,0.00,VWS V14.01,2013-02-01 14:11:00,
2013-02-01 08:16:00,-3.1,-13.9,29.26,South,190,0.0,0.0,59,0.00,,FEW220,0.00,VWS V14.01,2013-02-01 14:16:00,
2013-02-01 08:22:00,-2.6,-13.3,29.26,SSW,192,0.0,0.0,59,0.00,,FEW220,0.00,VWS V14.01,2013-02-01 14:22:00,
2013-02-01 08:27:00,-2.4,-13.2,29.26,SSW,200,0.0,0.0,59,0.00,,FEW220,0.00,VWS V14.01,2013-02-01 14:27:00,
2013-02-01 08:32:00,-2.0,-12.8,29.26,SSW,198,0.0,0.0,59,0.00,,FEW220,0.00,VWS V14.01,2013-02-01 14:32:00,
2013-02-01 08:37:00,-1.8,-12.7,29.26,SSW,196,0.0,0.0,59,0.00,,FEW220,0.00,VWS V14.01,2013-02-01 14:37:00,
2013-02-01 08:42:00,-1.5,-12.3,29.26,SSW,203,0.0,0.0,59,0.00,,FEW220,0.00,VWS V14.01,2013-02-01 14:42:00,
2013-02-01 08:47:00,-1.3,-12.1,29.29,SSW,198,0.0,0.0,59,0.00,,FEW220,0.00,VWS V14.01,2013-02-01 14:47:00,
2013-02-01 08:52:00,-0.9,-11.8,29.29,SSW,192,0.0,0.0,59,0.00,,FEW220,0.00,VWS V14.01,2013-02-01 14:52:00,
2013-02-01 08:57:00,-0.6,-11.5,29.29,WSW,237,2.7,2.7,59,0.00,,FEW220,0.00,VWS V14.01,2013-02-01 14:57:00,
2013-02-01 09:02:00,-0.2,-11.1,29.29,SW,236,0.0,0.0,59,0.00,,FEW220,0.00,VWS V14.01,2013-02-01 15:02:00,
2013-02-01 09:07:00,0.0,-10.9,29.29,SW,234,0.0,0.0,59,0.00,,FEW220,0.00,VWS V14.01,2013-02-01 15:07:00,
2013-02-01 09:12:00,0.3,-10.6,29.29,SW,231,0.0,0.0,59,0.00,,FEW220,0.00,VWS V14.01,2013-02-01 15:12:00,
2013-02-01 09:17:00,0.5,-10.4,29.26,WSW,241,0.0,0.0,59,0.00,,FEW220,0.00,VWS V14.01,2013-02-01 15:17:00,
2013-02-01 09:23:00,0.9,-10.1,29.26,WSW,240,0.0,0.0,59,0.00,,FEW220,0.00,VWS V14.01,2013-02-01 15:23:00,
2013-02-01 09:28:00,1.2,-9.8,29.26,WSW,240,0.0,0.0,59,0.00,,FEW220,0.00,VWS V14.01,2013-02-01 15:28:00,
2013-02-01 09:33:00,1.6,-9.4,29.26,WSW,248,0.0,0.0,59,0.00,,FEW220,0.00,VWS V14.01,2013-02-01 15:33:00,
2013-02-01 09:38:00,2.1,-8.9,29.26,SW,214,0.0,0.0,59,0.00,,FEW220,0.00,VWS V14.01,2013-02-01 15:38:00,
2013-02-01 09:43:00,2.5,-8.6,29.26,SSW,204,0.0,2.2,59,0.00,,FEW220,0.00,VWS V14.01,2013-02-01 15:43:00,
2013-02-01 09:48:00,2.8,-8.2,29.26,WSW,244,0.0,0.0,59,0.00,,FEW220,0.00,VWS V14.01,2013-02-01 15:48:00,
2013-02-01 09:53:00,3.2,-7.9,29.26,WSW,245,0.0,0.0,59,0.00,,FEW220,0.00,VWS V14.01,2013-02-01 15:53:00,
2013-02-01 09:58:00,3.6,-7.6,29.26,SSW,192,0.0,0.0,59,0.00,,FEW220,0.00,VWS V14.01,2013-02-01 15:58:00,
2013-02-01 10:03:00,3.7,-7.4,29.26,SSW,212,0.0,0.0,59,0.00,,OVC060,0.00,VWS V14.01,2013-02-01 16:03:00,
2013-02-01 10:08:00,4.1,-7.0,29.26,SSW,199,0.0,0.0,59,0.00,,OVC060,0.00,VWS V14.01,2013-02-01 16:08:00,
2013-02-01 10:13:00,4.5,-6.7,29.26,South,190,0.0,0.0,59,0.00,,OVC060,0.00,VWS V14.01,2013-02-01 16:13:00,
2013-02-01 10:18:00,4.8,-6.3,29.26,SSW,208,3.1,3.1,59,0.00,,OVC060,0.00,VWS V14.01,2013-02-01 16:18:00,
2013-02-01 10:23:00,5.2,-6.0,29.26,SSE,167,4.9,5.4,59,0.00,,OVC060,0.00,VWS V14.01,2013-02-01 16:23:00,
2013-02-01 10:28:00,5.4,-5.8,29.26,South,176,0.0,0.0,59,0.00,,OVC060,0.00,VWS V14.01,2013-02-01 16:28:00,
2013-02-01 10:33:00,5.4,-5.8,29.26,SSE,167,0.0,0.0,59,0.00,,OVC060,0.00,VWS V14.01,2013-02-01 16:33:00,
2013-02-01 10:38:00,5.5,-5.7,29.26,SSW,198,0.0,0.0,59,0.00,,OVC060,0.00,VWS V14.01,2013-02-01 16:38:00,
2013-02-01 10:43:00,5.9,-5.3,29.26,SSE,151,0.0,0.0,59,0.00,,OVC060,0.00,VWS V14.01,2013-02-01 16:43:00,
2013-02-01 10:48:00,6.3,-5.0,29.26,SSE,167,0.0,0.0,59,0.00,,OVC060,0.00,VWS V14.01,2013-02-01 16:48:00,
2013-02-01 10:53:00,6.4,-4.8,29.26,SSW,198,0.0,0.0,59,0.00,,OVC060,0.00,VWS V14.01,2013-02-01 16:53:00,
2013-02-01 10:58:00,6.6,-4.7,29.26,SSW,193,0.0,0.0,59,0.00,,OVC060,0.00,VWS V14.01,2013-02-01 16:58:00,
2013-02-01 11:03:00,6.8,-4.5,29.26,SE,145,0.0,0.0,59,0.00,,OVC060,0.00,VWS V14.01,2013-02-01 17:03:00,
2013-02-01 11:08:00,7.0,-4.3,29.26,SE,133,0.0,0.0,59,0.00,,OVC060,0.00,VWS V14.01,2013-02-01 17:08:00,
2013-02-01 11:13:00,7.5,-3.8,29.23,SE,144,0.0,0.0,59,0.00,,OVC060,0.00,VWS V14.01,2013-02-01 17:13:00,
2013-02-01 11:18:00,7.5,-3.8,29.23,SSE,151,0.0,0.0,59,0.00,,OVC060,0.00,VWS V14.01,2013-02-01 17:18:00,
2013-02-01 11:24:00,7.9,-3.5,29.23,SE,128,0.0,2.2,59,0.00,,OVC060,0.00,VWS V14.01,2013-02-01 17:24:00,
2013-02-01 11:29:00,8.1,-3.3,29.23,SSE,158,0.0,0.0,59,0.00,,OVC060,0.00,VWS V14.01,2013-02-01 17:29:00,
2013-02-01 11:34:00,8.4,-3.0,29.23,South,179,0.0,5.8,59,0.00,,OVC060,0.00,VWS V14.01,2013-02-01 17:34:00,
2013-02-01 11:39:00,8.8,-2.6,29.23,SE,130,0.0,0.0,59,0.00,,OVC060,0.00,VWS V14.01,2013-02-01 17:39:00,
2013-02-01 11:44:00,8.6,-2.8,29.23,South,177,2.7,5.8,59,0.00,,OVC060,0.00,VWS V14.01,2013-02-01 17:44:00,
2013-02-01 11:49:00,8.6,-2.8,29.23,SE,143,2.2,2.2,59,0.00,,OVC060,0.00,VWS V14.01,2013-02-01 17:49:00,
2013-02-01 11:54:00,8.6,-2.8,29.23,South,178,0.0,0.0,59,0.00,,OVC060,0.00,VWS V14.01,2013-02-01 17:54:00,
2013-02-01 11:59:00,8.8,-2.6,29.23,SE,146,2.7,2.7,59,0.00,,OVC060,0.00,VWS V14.01,2013-02-01 17:59:00,
2013-02-01 12:04:00,9.0,-2.4,29.23,SE,136,0.0,4.5,59,0.00,,OVC065,0.00,VWS V14.01,2013-02-01 18:04:00,
2013-02-01 12:09:00,9.1,-2.3,29.23,SSE,155,0.0,0.0,59,0.00,,OVC065,0.00,VWS V14.01,2013-02-01 18:09:00,
2013-02-01 12:14:00,9.3,-2.1,29.21,SE,143,0.0,3.1,59,0.00,,OVC065,0.00,VWS V14.01,2013-02-01 18:14:00,
2013-02-01 12:19:00,9.5,-1.9,29.21,ESE,113,0.0,4.0,59,0.00,,OVC065,0.00,VWS V14.01,2013-02-01 18:19:00,
2013-02-01 12:24:00,9.9,-1.6,29.21,SE,134,0.0,0.0,59,0.00,,OVC065,0.00,VWS V14.01,2013-02-01 18:24:00,
2013-02-01 12:29:00,10.2,-1.2,29.21,SE,131,0.0,0.0,59,0.00,,OVC065,0.00,VWS V14.01,2013-02-01 18:29:00,
2013-02-01 12:34:00,10.4,-1.1,29.21,SE,125,0.0,4.5,59,0.00,,OVC065,0.00,VWS V14.01,2013-02-01 18:34:00,
2013-02-01 12:39:00,10.4,-1.1,29.21,South,170,0.0,0.0,59,0.00,,OVC065,0.00,VWS V14.01,2013-02-01 18:39:00,
2013-02-01 12:44:00,10.4,-1.1,29.18,ESE,115,0.0,0.0,59,0.00,,OVC065,0.00,VWS V14.01,2013-02-01 18:44:00,
2013-02-01 12:49:00,10.2,-1.2,29.18,ESE,120,2.2,3.1,59,0.00,,OVC065,0.00,VWS V14.01,2013-02-01 18:49:00,
2013-02-01 12:54:00,10.4,-1.1,29.18,ESE,115,0.0,0.0,59,0.00,,OVC065,0.00,VWS V14.01,2013-02-01 18:54:00,
2013-02-01 12:59:00,10.2,-1.2,29.15,East,101,0.0,0.0,59,0.00,,OVC065,0.00,VWS V14.01,2013-02-01 18:59:00,
2013-02-01 13:05:00,10.4,-1.1,29.15,East,95,0.0,2.7,59,0.00,,OVC065,0.00,VWS V14.01,2013-02-01 19:05:00,
2013-02-01 13:10:00,10.4,-1.1,29.15,East,89,0.0,2.7,59,0.00,,OVC065,0.00,VWS V14.01,2013-02-01 19:10:00,
2013-02-01 13:15:00,10.6,-0.9,29.18,SE,126,0.0,0.0,59,0.00,,OVC065,0.00,VWS V14.01,2013-02-01 19:15:00,
2013-02-01 13:20:00,10.8,-0.7,29.18,SE,143,0.0,2.2,59,0.00,,OVC065,0.00,VWS V14.01,2013-02-01 19:20:00,
2013-02-01 13:25:00,10.8,-0.7,29.18,SE,136,0.0,3.6,59,0.00,,OVC065,0.00,VWS V14.01,2013-02-01 19:25:00,
2013-02-01 13:30:00,10.9,-0.6,29.15,SE,135,0.0,6.3,59,0.00,,OVC065,0.00,VWS V14.01,2013-02-01 19:30:00,
2013-02-01 13:35:00,11.1,-0.4,29.15,SE,142,2.7,2.7,59,0.00,,OVC065,0.00,VWS V14.01,2013-02-01 19:35:00,
2013-02-01 13:40:00,11.3,-0.2,29.15,ENE,78,2.7,2.7,59,0.00,,OVC065,0.00,VWS V14.01,2013-02-01 19:40:00,
2013-02-01 13:45:00,11.7,0.1,29.15,SE,139,2.2,4.9,59,0.00,,OVC065,0.00,VWS V14.01,2013-02-01 19:45:00,
2013-02-01 13:50:00,11.8,0.3,29.15,ESE,113,2.2,3.1,59,0.00,,OVC065,0.00,VWS V14.01,2013-02-01 19:50:00,
2013-02-01 13:55:00,12.2,0.6,29.15,SSE,151,5.8,5.8,59,0.00,,OVC065,0.00,VWS V14.01,2013-02-01 19:55:00,
2013-02-01 14:00:00,12.6,1.0,29.12,SE,125,0.0,0.0,59,0.00,,OVC065,0.00,VWS V14.01,2013-02-01 20:00:00,
2013-02-01 14:05:00,12.7,1.1,29.12,ESE,105,0.0,0.0,59,0.00,,OVC055,0.00,VWS V14.01,2013-02-01 20:05:00,
2013-02-01 14:10:00,12.9,1.3,29.12,East,96,0.0,7.6,59,0.00,,OVC055,0.00,VWS V14.01,2013-02-01 20:10:00,
2013-02-01 14:15:00,13.1,1.5,29.12,ESE,122,3.1,3.1,59,0.00,,OVC055,0.00,VWS V14.01,2013-02-01 20:15:00,
2013-02-01 14:20:00,13.3,1.6,29.12,SSE,157,2.2,2.2,59,0.00,,OVC055,0.00,VWS V14.01,2013-02-01 20:20:00,
2013-02-01 14:25:00,13.5,1.8,29.12,ESE,120,5.4,5.4,59,0.00,,OVC055,0.00,VWS V14.01,2013-02-01 20:25:00,
2013-02-01 14:30:00,13.5,1.8,29.12,ESE,114,0.0,3.6,59,0.00,,OVC055,0.00,VWS V14.01,2013-02-01 20:30:00,
2013-02-01 14:35:00,13.6,2.0,29.12,SE,145,0.0,2.7,59,0.00,,OVC055,0.00,VWS V14.01,2013-02-01 20:35:00,
2013-02-01 14:40:00,13.6,2.0,29.12,SE,127,0.0,2.2,59,0.00,,OVC055,0.00,VWS V14.01,2013-02-01 20:40:00,
2013-02-01 14:45:00,14.0,-2.1,29.12,ESE,123,2.2,2.2,48,0.00,,OVC055,0.00,VWS V14.01,2013-02-01 20:45:00,
2013-02-01 14:50:00,14.2,-1.9,29.12,SSE,155,5.8,8.7,48,0.00,,OVC055,0.00,VWS V14.01,2013-02-01 20:50:00,
2013-02-01 14:56:00,14.0,-2.1,29.12,SE,133,2.7,2.7,48,0.00,,OVC055,0.00,VWS V14.01,2013-02-01 20:56:00,
2013-02-01 15:01:00,14.2,-1.9,29.12,SSE,149,0.0,4.0,48,0.00,,OVC055,0.00,VWS V14.01,2013-02-01 21:01:00,
2013-02-01 15:06:00,14.4,-1.7,29.12,ESE,116,0.0,0.0,48,0.00,,OVC055,0.00,VWS V14.01,2013-02-01 21:06:00,
2013-02-01 15:11:00,14.5,-1.1,29.12,South,173,7.6,7.6,49,0.00,,OVC055,0.00,VWS V14.01,2013-02-01 21:11:00,
2013-02-01 15:16:00,14.4,-1.7,29.12,SSE,149,3.1,3.1,48,0.00,,OVC055,0.00,VWS V14.01,2013-02-01 21:16:00,
2013-02-01 15:21:00,14.4,-1.7,29.12,SSE,162,0.0,4.0,48,0.00,,OVC055,0.00,VWS V14.01,2013-02-01 21:21:00,
2013-02-01 15:26:00,14.4,-1.7,29.12,SE,130,4.5,4.5,48,0.00,,OVC055,0.00,VWS V14.01,2013-02-01 21:26:00,
2013-02-01 15:31:00,14.5,-1.1,29.09,South,173,0.0,2.2,49,0.00,,OVC055,0.00,VWS V14.01,2013-02-01 21:31:00,
2013-02-01 15:36:00,14.7,-1.0,29.09,SE,129,3.6,4.9,49,0.00,,OVC055,0.00,VWS V14.01,2013-02-01 21:36:00,
2013-02-01 15:41:00,14.9,-0.8,29.09,SSE,168,0.0,0.0,49,0.00,,OVC055,0.00,VWS V14.01,2013-02-01 21:41:00,
2013-02-01 15:46:00,15.1,-0.6,29.09,SSE,152,0.0,0.0,49,0.00,,OVC055,0.00,VWS V14.01,2013-02-01 21:46:00,
2013-02-01 15:51:00,15.1,-0.2,29.09,SE,142,0.0,0.0,50,0.00,,OVC055,0.00,VWS V14.01,2013-02-01 21:51:00,
2013-02-01 15:56:00,15.3,0.0,29.09,SE,127,0.0,0.0,50,0.00,,OVC055,0.00,VWS V14.01,2013-02-01 21:56:00,
2013-02-01 16:01:00,15.3,0.0,29.09,SE,141,0.0,2.7,50,0.00,,OVC100,0.00,VWS V14.01,2013-02-01 22:01:00,
2013-02-01 16:06:00,15.4,0.6,29.09,South,188,3.6,3.6,51,0.00,,OVC100,0.00,VWS V14.01,2013-02-01 22:06:00,
2013-02-01 16:11:00,15.4,0.6,29.09,SE,139,2.7,2.7,51,0.00,,OVC100,0.00,VWS V14.01,2013-02-01 22:11:00,
2013-02-01 16:16:00,15.4,0.6,29.06,SE,128,0.0,2.7,51,0.00,,OVC100,0.00,VWS V14.01,2013-02-01 22:16:00,
2013-02-01 16:21:00,15.8,1.3,29.06,SE,143,4.0,4.0,52,0.00,,OVC100,0.00,VWS V14.01,2013-02-01 22:21:00,
2013-02-01 16:26:00,15.8,1.3,29.06,ESE,114,0.0,0.0,52,0.00,,OVC100,0.00,VWS V14.01,2013-02-01 22:26:00,
2013-02-01 16:31:00,15.8,1.7,29.06,ESE,118,0.0,0.0,53,0.00,,OVC100,0.00,VWS V14.01,2013-02-01 22:31:00,
2013-02-01 16:36:00,15.8,1.7,29.06,SE,140,0.0,4.0,53,0.00,,OVC100,0.00,VWS V14.01,2013-02-01 22:36:00,
2013-02-01 16:42:00,15.8,1.7,29.06,SE,130,0.0,2.2,53,0.00,,OVC100,0.00,VWS V14.01,2013-02-01 22:42:00,
2013-02-01 16:47:00,15.8,2.1,29.06,SE,144,2.2,2.2,54,0.00,,OVC100,0.00,VWS V14.01,2013-02-01 22:47:00,
2013-02-01 16:52:00,15.8,2.1,29.06,SE,133,0.0,0.0,54,0.00,,OVC100,0.00,VWS V14.01,2013-02-01 22:52:00,
2013-02-01 16:57:00,15.8,2.1,29.06,SE,127,0.0,0.0,54,0.00,,OVC100,0.00,VWS V14.01,2013-02-01 22:57:00,
2013-02-01 17:02:00,15.8,2.1,29.06,SE,129,0.0,0.0,54,0.00,,OVC100,0.00,VWS V14.01,2013-02-01 23:02:00,
2013-02-01 17:07:00,15.8,2.1,29.06,SE,128,0.0,0.0,54,0.00,,OVC100,0.00,VWS V14.01,2013-02-01 23:07:00,
2013-02-01 17:12:00,15.8,2.1,29.06,ESE,103,0.0,0.0,54,0.00,,OVC100,0.00,VWS V14.01,2013-02-01 23:12:00,
2013-02-01 17:17:00,15.8,2.1,29.06,ESE,120,0.0,0.0,54,0.00,,OVC100,0.00,VWS V14.01,2013-02-01 23:17:00,
2013-02-01 17:22:00,15.8,2.1,29.06,ESE,112,0.0,0.0,54,0.00,,OVC100,0.00,VWS V14.01,2013-02-01 23:22:00,
2013-02-01 17:27:00,15.8,2.5,29.06,SE,127,0.0,0.0,55,0.00,,OVC100,0.00,VWS V14.01,2013-02-01 23:27:00,
2013-02-01 17:32:00,15.6,2.3,29.03,SE,127,0.0,0.0,55,0.00,,OVC100,0.00,VWS V14.01,2013-02-01 23:32:00,
2013-02-01 17:37:00,15.6,2.3,29.03,ESE,108,0.0,0.0,55,0.00,,OVC100,0.00,VWS V14.01,2013-02-01 23:37:00,
2013-02-01 17:42:00,15.6,2.3,29.03,SE,126,0.0,0.0,55,0.00,,OVC100,0.00,VWS V14.01,2013-02-01 23:42:00,
2013-02-01 17:47:00,15.4,2.2,29.03,SE,126,0.0,0.0,55,0.00,,OVC100,0.00,VWS V14.01,2013-02-01 23:47:00,
2013-02-01 17:52:00,15.6,2.7,29.03,SE,132,0.0,0.0,56,0.00,,OVC100,0.00,VWS V14.01,2013-02-01 23:52:00,
2013-02-01 17:57:00,15.6,2.7,29.03,SE,138,0.0,0.0,56,0.00,,OVC100,0.00,VWS V14.01,2013-02-01 23:57:00,
2013-02-01 18:02:00,15.6,2.7,29.03,ESE,111,0.0,0.0,56,0.00,,OVC100,0.00,VWS V14.01,2013-02-02 00:02:00,
2013-02-01 18:07:00,15.8,2.9,29.03,SE,139,0.0,0.0,56,0.00,,OVC100,0.00,VWS V14.01,2013-02-02 00:07:00,
2013-02-01 18:12:00,15.8,3.3,29.03,SE,146,0.0,0.0,57,0.00,,OVC100,0.00,VWS V14.01,2013-02-02 00:12:00,
2013-02-01 18:17:00,15.8,3.3,29.03,SE,133,0.0,3.1,57,0.00,,OVC100,0.00,VWS V14.01,2013-02-02 00:17:00,
2013-02-01 18:22:00,16.0,3.5,29.03,SE,138,0.0,0.0,57,0.00,,OVC100,0.00,VWS V14.01,2013-02-02 00:22:00,
2013-02-01 18:28:00,16.0,3.5,29.03,SE,133,0.0,0.0,57,0.00,,OVC100,0.00,VWS V14.01,2013-02-02 00:28:00,
2013-02-01 18:33:00,16.0,3.5,29.03,SE,135,5.4,5.4,57,0.00,,OVC100,0.00,VWS V14.01,2013-02-02 00:33:00,
2013-02-01 18:38:00,16.0,3.5,29.03,SSE,147,0.0,2.7,57,0.00,,OVC100,0.00,VWS V14.01,2013-02-02 00:38:00,
2013-02-01 18:43:00,16.0,3.5,29.03,SE,142,0.0,3.1,57,0.00,,OVC100,0.00,VWS V14.01,2013-02-02 00:43:00,
2013-02-01 18:48:00,16.0,3.5,29.00,SE,141,2.7,2.7,57,0.00,,OVC100,0.00,VWS V14.01,2013-02-02 00:48:00,
2013-02-01 18:53:00,16.0,3.5,29.00,SE,131,5.4,5.4,57,0.00,,OVC100,0.00,VWS V14.01,2013-02-02 00:53:00,
2013-02-01 18:58:00,16.0,3.5,29.00,SE,142,2.2,2.2,57,0.00,,OVC100,0.00,VWS V14.01,2013-02-02 00:58:00,
2013-02-01 19:03:00,16.0,3.5,29.00,SSE,152,2.2,2.2,57,0.00,,OVC100,0.00,VWS V14.01,2013-02-02 01:03:00,
2013-02-01 19:08:00,16.0,3.8,29.00,SE,138,0.0,3.6,58,0.00,,OVC100,0.00,VWS V14.01,2013-02-02 01:08:00,
2013-02-01 19:13:00,16.2,4.0,29.00,SSE,157,2.7,2.7,58,0.00,,OVC100,0.00,VWS V14.01,2013-02-02 01:13:00,
2013-02-01 19:18:00,16.2,4.0,29.00,SSE,150,5.4,5.4,58,0.00,,OVC100,0.00,VWS V14.01,2013-02-02 01:18:00,
2013-02-01 19:23:00,16.2,4.0,29.00,SE,145,0.0,3.6,58,0.00,,OVC100,0.00,VWS V14.01,2013-02-02 01:23:00,
2013-02-01 19:28:00,16.2,4.4,29.00,SSE,165,0.0,0.0,59,0.00,,OVC100,0.00,VWS V14.01,2013-02-02 01:28:00,
2013-02-01 19:33:00,16.3,4.5,29.00,SE,146,0.0,2.7,59,0.00,,OVC100,0.00,VWS V14.01,2013-02-02 01:33:00,
2013-02-01 19:38:00,16.5,4.7,29.00,SSE,160,0.0,0.0,59,0.00,,OVC100,0.00,VWS V14.01,2013-02-02 01:38:00,
2013-02-01 19:43:00,16.5,4.7,29.00,South,170,2.7,2.7,59,0.00,,OVC100,0.00,VWS V14.01,2013-02-02 01:43:00,
2013-02-01 19:48:00,16.7,5.2,29.00,SSE,160,0.0,0.0,60,0.00,,OVC100,0.00,VWS V14.01,2013-02-02 01:48:00,
2013-02-01 19:53:00,16.7,5.2,29.00,SSE,160,0.0,2.7,60,0.00,,OVC100,0.00,VWS V14.01,2013-02-02 01:53:00,
2013-02-01 19:58:00,16.9,5.8,29.00,South,173,4.9,6.3,61,0.00,,OVC100,0.00,VWS V14.01,2013-02-02 01:58:00,
2013-02-01 20:03:00,17.1,5.9,29.00,SE,146,3.1,3.1,61,0.00,,OVC180,0.00,VWS V14.01,2013-02-02 02:03:00,
2013-02-01 20:08:00,17.4,6.6,29.00,SSE,148,4.9,4.9,62,0.00,,OVC180,0.00,VWS V14.01,2013-02-02 02:08:00,
2013-02-01 20:13:00,17.4,6.6,28.97,South,176,5.4,6.7,62,0.00,,OVC180,0.00,VWS V14.01,2013-02-02 02:13:00,
2013-02-01 20:18:00,17.8,7.0,28.97,South,189,4.0,4.9,62,0.00,,OVC180,0.00,VWS V14.01,2013-02-02 02:18:00,
2013-02-01 20:23:00,17.8,7.3,28.97,South,185,7.6,7.6,63,0.00,,OVC180,0.00,VWS V14.01,2013-02-02 02:23:00,
2013-02-01 20:28:00,18.1,7.7,28.97,South,182,5.4,10.1,63,0.00,,OVC180,0.00,VWS V14.01,2013-02-02 02:28:00,
2013-02-01 20:34:00,18.3,7.8,28.97,South,189,8.3,10.1,63,0.00,,OVC180,0.00,VWS V14.01,2013-02-02 02:34:00,
2013-02-01 20:39:00,18.5,8.0,28.97,South,176,11.0,11.0,63,0.00,,OVC180,0.00,VWS V14.01,2013-02-02 02:39:00,
2013-02-01 20:44:00,18.7,8.2,28.97,South,184,7.6,10.1,63,0.00,,OVC180,0.00,VWS V14.01,2013-02-02 02:44:00,
2013-02-01 20:49:00,18.9,8.4,28.97,SSE,166,11.0,11.0,63,0.00,,OVC180,0.00,VWS V14.01,2013-02-02 02:49:00,
2013-02-01 20:54:00,19.0,8.5,28.97,South,179,5.8,8.1,63,0.00,,OVC180,0.00,VWS V14.01,2013-02-02 02:54:00,
2013-02-01 20:59:00,19.2,8.7,28.97,South,185,7.6,8.3,63,0.00,,OVC180,0.00,VWS V14.01,2013-02-02 02:59:00,
2013-02-01 21:04:00,19.2,8.7,28.97,South,169,8.7,10.1,63,0.00,,OVC180,0.00,VWS V14.01,2013-02-02 03:04:00,
2013-02-01 21:09:00,19.4,8.9,28.97,SSE,168,7.2,8.1,63,0.00,,OVC180,0.00,VWS V14.01,2013-02-02 03:09:00,
2013-02-01 21:14:00,19.4,8.9,28.97,SSW,196,8.3,8.3,63,0.00,,OVC180,0.00,VWS V14.01,2013-02-02 03:14:00,
2013-02-01 21:19:00,19.6,9.1,28.97,SSW,192,4.9,4.9,63,0.00,,OVC180,0.00,VWS V14.01,2013-02-02 03:19:00,
2013-02-01 21:24:00,19.6,9.1,28.97,South,190,5.8,6.3,63,0.00,,OVC180,0.00,VWS V14.01,2013-02-02 03:24:00,
2013-02-01 21:29:00,19.8,9.2,28.97,South,187,4.9,6.3,63,0.00,,OVC180,0.00,VWS V14.01,2013-02-02 03:29:00,
2013-02-01 21:34:00,19.9,9.4,28.97,SSW,203,5.8,11.0,63,0.00,,OVC180,0.00,VWS V14.01,2013-02-02 03:34:00,
2013-02-01 21:39:00,20.1,9.9,28.97,South,173,6.3,12.8,64,0.00,,OVC180,0.00,VWS V14.01,2013-02-02 03:39:00,
2013-02-01 21:44:00,20.1,9.9,28.97,SSW,209,6.3,11.0,64,0.00,,OVC180,0.00,VWS V14.01,2013-02-02 03:44:00,
2013-02-01 21:50:00,20.3,10.1,28.97,South,182,7.6,8.1,64,0.00,,OVC180,0.00,VWS V14.01,2013-02-02 03:50:00,
2013-02-01 21:55:00,20.3,10.1,28.97,SSW,204,7.6,7.6,64,0.00,,OVC180,0.00,VWS V14.01,2013-02-02 03:55:00,
2013-02-01 22:00:00,20.5,10.6,28.97,South,191,8.1,8.1,65,0.00,,OVC180,0.00,VWS V14.01,2013-02-02 04:00:00,
2013-02-01 22:05:00,20.7,10.8,28.97,South,185,8.3,8.3,65,0.00,,,0.00,VWS V14.01,2013-02-02 04:05:00,
2013-02-01 22:10:00,21.0,11.1,28.97,SSW,197,6.3,8.7,65,0.00,,,0.00,VWS V14.01,2013-02-02 04:10:00,
2013-02-01 22:15:00,21.2,11.3,28.97,SSW,204,8.1,8.1,65,0.00,,,0.00,VWS V14.01,2013-02-02 04:15:00,
2013-02-01 22:20:00,21.2,11.3,28.97,South,182,7.6,8.3,65,0.00,,,0.00,VWS V14.01,2013-02-02 04:20:00,
2013-02-01 22:25:00,21.2,11.3,28.97,South,190,8.7,10.5,65,0.00,,,0.00,VWS V14.01,2013-02-02 04:25:00,
2013-02-01 22:30:00,21.4,11.1,28.97,SSW,197,10.1,11.0,64,0.00,,,0.00,VWS V14.01,2013-02-02 04:30:00,
2013-02-01 22:35:00,21.6,11.3,28.97,SSW,204,12.3,13.2,64,0.00,,,0.00,VWS V14.01,2013-02-02 04:35:00,
2013-02-01 22:40:00,21.7,11.4,28.97,SSW,192,11.0,11.0,64,0.00,,,0.00,VWS V14.01,2013-02-02 04:40:00,
2013-02-01 22:45:00,21.7,11.4,28.94,South,182,11.0,11.0,64,0.00,,,0.00,VWS V14.01,2013-02-02 04:45:00,
2013-02-01 22:50:00,21.9,11.6,28.94,South,186,10.1,12.3,64,0.00,,,0.00,VWS V14.01,2013-02-02 04:50:00,
2013-02-01 22:55:00,21.9,11.3,28.94,SSW,197,8.7,9.6,63,0.00,,,0.00,VWS V14.01,2013-02-02 04:55:00,
2013-02-01 23:00:00,22.1,11.4,28.94,SSW,197,8.3,10.1,63,0.00,,,0.00,VWS V14.01,2013-02-02 05:00:00,
2013-02-01 23:01:00,22.1,11.4,28.94,South,184,9.6,10.1,63,0.00,,,0.00,VWS V14.01,2013-02-02 05:01:00,
2013-02-01 23:02:00,22.1,11.4,28.94,SSW,192,8.7,8.7,63,0.00,,,0.00,VWS V14.01,2013-02-02 05:02:00,
2013-02-01 23:07:00,22.3,11.6,28.94,SSW,192,7.6,11.0,63,0.00,,,0.00,VWS V14.01,2013-02-02 05:07:00,
2013-02-01 23:12:00,22.3,11.6,28.94,SSW,193,10.5,11.9,63,0.00,,,0.00,VWS V14.01,2013-02-02 05:12:00,
2013-02-01 23:17:00,22.5,11.8,28.94,SSW,194,8.1,15.4,63,0.00,,,0.00,VWS V14.01,2013-02-02 05:17:00,
2013-02-01 23:22:00,22.5,11.8,28.94,South,190,8.1,13.2,63,0.00,,,0.00,VWS V14.01,2013-02-02 05:22:00,
2013-02-01 23:27:00,22.6,12.0,28.94,SSW,203,4.0,8.1,63,0.00,,,0.00,VWS V14.01,2013-02-02 05:27:00,
2013-02-01 23:32:00,22.8,12.1,28.94,SSW,203,11.0,11.0,63,0.00,,,0.00,VWS V14.01,2013-02-02 05:32:00,
2013-02-01 23:37:00,22.8,12.1,28.94,SSW,192,12.8,12.8,63,0.00,,,0.00,VWS V14.01,2013-02-02 05:37:00,
2013-02-01 23:42:00,22.8,11.8,28.94,South,189,11.0,12.8,62,0.00,,,0.00,VWS V14.01,2013-02-02 05:42:00,
2013-02-01 23:47:00,23.0,11.9,28.94,SSW,204,13.2,13.2,62,0.00,,,0.00,VWS V14.01,2013-02-02 05:47:00,
2013-02-01 23:52:00,23.0,11.9,28.94,South,190,9.6,12.3,62,0.00,,,0.00,VWS V14.01,2013-02-02 05:52:00,
2013-02-01 23:58:00,23.0,11.9,28.94,SSW,198,3.1,6.3,62,0.00,,,0.00,VWS V14.01,2013-02-02 05:58:00,